• Join FlightAware (Why Join?)
  • Login
  • US Flag 
12:27PM EDT


 

Airport Tracker/Info


-or-


 

Live Flight TrackerFlight Track Log ✈ SWA756 ✈ 25-Apr-2013 ✈ KDAL - KSAT

Flight Track Log - Related Links

Times and Time Zones

All times are in EDT time to prevent confusion due to time zone crossing. See the SWA756 flight status page for this flight to view local times or setup timezone preferences in your user account.

Time Position Orientation Groundspeed Altitude Reporting Facility
EDT Latitude Longitude Course Direction KTS MPH feet Rate Location/Type
09:35PM 32.8333 -96.8333 128° Southeast 149 171 1,600  Level Dallas / Fort Worth TRACON
09:36PM 32.8000 -96.7833 128° Southeast 200 230 3,600 1,980 Climbing Dallas / Fort Worth TRACON
09:37PM 32.7667 -96.7500 140° Southeast 233 268 5,400 2,400 Climbing Dallas / Fort Worth TRACON
09:38PM 32.7000 -96.7667 192° South 271 312 8,200 2,880 Climbing Dallas / Fort Worth TRACON
09:39PM 32.5669 -96.8611 211° Southwest 324 373 13,700 3,000 Climbing Fort Worth Center
09:40PM 32.4817 -96.9183 210° Southwest 344 396 16,800 3,000 Climbing Fort Worth Center
09:41PM 32.3964 -96.9781 211° Southwest 354 407 19,800 2,640 Climbing Fort Worth Center
09:42PM 32.3067 -97.0447 212° Southwest 374 430 22,100 2,400 Climbing Fort Worth Center
09:43PM 32.1942 -97.0622 187° South 401 461 24,600 2,340 Climbing Fort Worth Center
09:44PM 32.0750 -97.0653 181° South 420 483 26,800 1,680 Climbing Fort Worth Center
09:45PM 31.9769 -97.0681 181° South 434 499 28,000 600 Climbing Fort Worth Center
09:46PM 31.8328 -97.0783 183° South 439 505 28,000  Level Fort Worth Center
09:47PM 31.7078 -97.0789 180° South 444 511 28,000  Level Fort Worth Center
09:49PM 31.5081 -97.0911 183° South 442 509 28,000  Level Houston Center
09:50PM 31.3944 -97.1364 199° South 428 493 28,000  Level Houston Center
09:51PM 31.2808 -97.1808 198° South 427 491 28,000  Level Houston Center
09:52PM 31.1489 -97.2322 198° South 424 488 28,000  Level Houston Center
09:53PM 31.0361 -97.2767 199° South 426 490 28,000  Level Houston Center
09:54PM 30.9247 -97.3189 198° South 429 494 28,000  Level Houston Center
09:55PM 30.8131 -97.3628 199° South 430 495 28,000  Level Houston Center
09:56PM 30.7019 -97.4056 198° South 422 486 28,000  Level Houston Center
09:57PM 30.5892 -97.4489 198° South 422 486 28,000 -600 Level Houston Center
09:58PM 30.4767 -97.4917 198° South 420 483 26,800 -1,740 Descending Houston Center
09:59PM 30.3678 -97.5367 200° South 413 475 24,500 -2,280 Descending Houston Center
10:00PM 30.2747 -97.6014 211° Southwest 385 443 22,200 -2,400 Descending Houston Center
10:01PM 30.1678 -97.6761 211° Southwest 380 437 19,700 -2,400 Descending Houston Center
10:02PM 30.1194 -97.7103 211° Southwest 383 441 18,600 -2,040 Descending Houston Center
10:02PM 30.0742 -97.7411 211° Southwest 385 443 17,600 -2,160 Descending Houston Center
10:03PM 30.0150 -97.7817 211° Southwest 382 440 16,000 -2,460 Descending Houston Center
10:03PM 29.9806 -97.8044 210° Southwest 376 433 15,100 -2,400 Descending Houston Center
10:04PM 29.9261 -97.8414 210° Southwest 368 423 13,600 -2,400 Descending Houston Center
10:04PM 29.8950 -97.8667 215° Southwest 364 419 12,700 -2,520 Descending Houston Center
10:05PM 29.8644 -97.9408 245° Southwest 361 415 11,100 -1,980 Descending Houston Center
10:05PM 29.8517 -97.9703 243° Southwest 357 411 10,700 -720 Descending Houston Center
10:06PM 29.8250 -98.0347 245° Southwest 327 376 10,400 -540 Descending Houston Center
10:07PM 29.8139 -98.0594 243° Southwest 309 356 10,200 -1,320 Descending Houston Center
10:07PM 29.7906 -98.1161 245° Southwest 272 313 9,100 -1,680 Descending Houston Center
10:08PM 29.7775 -98.1464 244° Southwest 283 326 8,500 -1,620 Descending Houston Center
10:08PM 29.7564 -98.1975 245° Southwest 278 320 7,500 -1,620 Descending Houston Center
10:09PM 29.7431 -98.2267 242° Southwest 281 323 6,900 -1,680 Descending Houston Center
10:09PM 29.7253 -98.2711 245° Southwest 279 321 6,000 -1,020 Descending Houston Center
10:10PM 29.7217 -98.3089 264° West 275 316 5,900 -540 Descending Houston Center
10:10PM 29.7225 -98.3533 271° West 253 291 5,500 -1,140 Descending Houston Center
10:11PM 29.7219 -98.3956 269° West 252 290 4,800 -1,200 Descending Houston Center
10:11PM 29.7214 -98.4328 269° West 250 288 4,300 -900 Descending Houston Center
10:12PM 29.7217 -98.4756 270° West 248 285 3,900 -840 Descending Houston Center
10:12PM 29.7225 -98.5119 272° West 244 281 3,500 -900 Descending Houston Center
10:13PM 29.7161 -98.5483 259° West 236 272 3,000 -540 Descending Houston Center
10:13PM 29.6969 -98.5775 233° Southwest 206 237 3,000  Level Houston Center
10:14PM 29.6814 -98.5958 226° Southwest 194 223 3,000  Level Houston Center
10:14PM 29.6597 -98.6086 207° Southwest 153 176 3,000  Level Houston Center
10:15PM 29.6367 -98.6031 168° South 162 186 3,000  Level Houston Center
10:15PM 29.6225 -98.5914 144° Southeast 142 163 3,000 -240 Level Houston Center
10:16PM 29.6089 -98.5706 127° Southeast 144 166 2,800 -660 Descending Houston Center
10:16PM 29.5961 -98.5536 131° Southeast 138 159 2,300 -840 Descending Houston Center
10:17PM 29.5833 -98.5369 131° Southeast 141 162 2,000 -720 Descending Houston Center
10:17PM 29.5675 -98.5186 135° Southeast 138 159 1,600 -720 Descending Houston Center
10:18PM 29.5572 -98.5025 126° Southeast 135 155 1,300 -600 Descending Houston Center
10:19PM 29.5353 -98.4744 132° Southeast 128 147 800 -540 Descending Houston Center
10:21PM 29.5333 -98.4667 16° North  Level FlightAware Approximate